createdAt,value
2023-02-06T00:02:07.724Z,2.70
2023-02-06T00:04:53.297Z,3.97
2023-02-06T00:07:38.885Z,5.38
2023-02-06T00:10:24.305Z,2.05
2023-02-06T00:13:09.814Z,5.55
2023-02-06T00:15:55.063Z,3.03
2023-02-06T00:18:40.496Z,4.20
2023-02-06T00:21:27.299Z,5.10
2023-02-06T00:24:12.962Z,4.72
2023-02-06T00:26:58.230Z,2.50
2023-02-06T00:29:43.526Z,3.40
2023-02-06T00:32:28.962Z,3.97
2023-02-06T00:35:14.317Z,1.70
2023-02-06T00:38:00.837Z,1.85
2023-02-06T00:40:46.320Z,3.33
2023-02-06T00:43:32.126Z,3.63
2023-02-06T00:46:17.952Z,3.67
2023-02-06T00:49:03.779Z,2.17
2023-02-06T00:51:49.219Z,2.25
2023-02-06T00:54:34.513Z,2.13
2023-02-06T00:57:19.791Z,1.75
2023-02-06T01:00:08.243Z,3.67
2023-02-06T01:02:53.597Z,1.83
2023-02-06T01:05:39.474Z,2.17
2023-02-06T01:08:25.197Z,2.80
2023-02-06T01:11:18.974Z,2.53
2023-02-06T01:14:04.854Z,1.90
2023-02-06T01:16:50.045Z,2.67
2023-02-06T01:19:38.147Z,2.42
2023-02-06T01:22:25.184Z,1.80
2023-02-06T01:25:10.441Z,1.77
2023-02-06T01:27:57.341Z,1.67
2023-02-06T01:30:42.768Z,1.70
2023-02-06T01:33:28.034Z,1.23
2023-02-06T01:36:14.978Z,2.72
2023-02-06T01:39:00.221Z,1.50
2023-02-06T01:41:46.520Z,3.67
2023-02-06T01:44:33.065Z,1.10
2023-02-06T01:47:18.287Z,5.30
2023-02-06T01:50:04.268Z,2.47
2023-02-06T01:52:51.079Z,2.78
2023-02-06T01:55:38.703Z,2.15
2023-02-06T01:58:35.721Z,3.85
2023-02-06T02:01:22.097Z,2.80
2023-02-06T02:04:13.154Z,2.67
2023-02-06T02:07:13.918Z,3.58
2023-02-06T02:10:02.944Z,3.45
2023-02-06T02:12:48.751Z,1.80
2023-02-06T02:15:59.640Z,2.38
2023-02-06T02:19:42.710Z,2.50
2023-02-06T02:22:46.279Z,2.83
2023-02-06T02:25:56.361Z,2.35
2023-02-06T02:28:51.111Z,1.85
2023-02-06T02:31:45.492Z,3.85
2023-02-06T02:34:40.104Z,3.50
2023-02-06T02:37:55.312Z,1.42
2023-02-06T02:40:58.468Z,3.22
2023-02-06T02:43:51.515Z,1.27
2023-02-06T02:46:44.928Z,2.80
2023-02-06T02:49:34.391Z,3.03
2023-02-06T02:52:20.147Z,1.63
2023-02-06T02:55:22.342Z,2.40
2023-02-06T02:58:16.641Z,2.33
2023-02-06T03:01:06.096Z,3.95
2023-02-06T03:03:56.460Z,1.50
2023-02-06T03:06:56.242Z,3.08
2023-02-06T03:09:45.963Z,1.42
2023-02-06T03:12:53.677Z,3.10
2023-02-06T03:16:00.192Z,4.70
2023-02-06T03:19:11.141Z,1.20
2023-02-06T03:21:57.400Z,2.67
2023-02-06T03:24:43.027Z,3.00
2023-02-06T03:27:30.375Z,2.33
2023-02-06T03:30:19.294Z,1.25
2023-02-06T03:33:07.580Z,3.75
2023-02-06T03:35:56.904Z,1.52
2023-02-06T03:38:42.231Z,2.13
2023-02-06T03:41:32.829Z,3.50
2023-02-06T03:44:24.572Z,1.52
2023-02-06T03:47:11.776Z,3.78
2023-02-06T03:50:00.371Z,1.67
2023-02-06T03:52:49.200Z,3.00
2023-02-06T03:55:36.609Z,1.23
2023-02-06T03:58:24.497Z,2.50
2023-02-06T04:01:11.534Z,3.35
2023-02-06T04:03:58.502Z,3.40
2023-02-06T04:06:44.472Z,2.53
2023-02-06T04:09:30.136Z,1.90
2023-02-06T04:12:16.061Z,2.08
2023-02-06T04:15:01.718Z,3.47
2023-02-06T04:17:59.524Z,3.13
2023-02-06T04:20:46.345Z,2.45
2023-02-06T04:23:31.931Z,3.35
2023-02-06T04:26:17.634Z,6.30
2023-02-06T04:29:03.126Z,1.83
2023-02-06T04:31:48.606Z,4.68
2023-02-06T04:34:36.158Z,3.95
2023-02-06T04:37:21.330Z,5.80
2023-02-06T04:40:07.150Z,1.73
2023-02-06T04:42:52.952Z,3.47
2023-02-06T04:45:38.566Z,1.63
2023-02-06T04:48:24.295Z,2.53
2023-02-06T04:51:09.860Z,1.38
2023-02-06T04:53:55.700Z,1.08
2023-02-06T04:56:41.488Z,4.22
2023-02-06T04:59:27.130Z,2.72
2023-02-06T05:02:12.530Z,1.15
2023-02-06T05:04:57.596Z,2.78
2023-02-06T05:07:42.959Z,2.65
2023-02-06T05:10:28.377Z,2.03
2023-02-06T05:13:14.430Z,4.13
2023-02-06T05:16:11.721Z,2.58
2023-02-06T05:18:57.245Z,0.95
2023-02-06T05:21:42.704Z,3.88
2023-02-06T05:24:28.121Z,2.75
2023-02-06T05:27:13.381Z,2.40
2023-02-06T05:29:58.580Z,3.20
2023-02-06T05:32:44.297Z,2.38
2023-02-06T05:35:29.939Z,2.83
2023-02-06T05:38:15.625Z,2.58
2023-02-06T05:41:01.508Z,2.45
2023-02-06T05:43:46.809Z,17.30
2023-02-06T05:46:32.244Z,9.93
2023-02-06T05:49:17.720Z,12.70
2023-02-06T05:52:02.994Z,17.30
2023-02-06T05:54:48.288Z,20.23
2023-02-06T05:57:33.575Z,3.42
2023-02-06T06:00:19.223Z,2.65
2023-02-06T06:03:05.098Z,2.75
2023-02-06T06:05:50.702Z,1.75
2023-02-06T06:08:36.126Z,1.52
2023-02-06T06:11:21.760Z,3.60
2023-02-06T06:14:07.395Z,2.10
2023-02-06T06:16:52.909Z,2.38
2023-02-06T06:19:38.328Z,2.13
2023-02-06T06:22:23.554Z,5.10
2023-02-06T06:25:08.902Z,2.60
2023-02-06T06:27:54.232Z,1.60
2023-02-06T06:30:39.518Z,4.15
2023-02-06T06:33:24.795Z,4.85
2023-02-06T06:36:14.303Z,2.55
2023-02-06T06:38:59.702Z,2.17
2023-02-06T06:41:45.093Z,2.35
2023-02-06T06:44:31.599Z,4.65
2023-02-06T06:47:17.390Z,4.32
2023-02-06T06:50:03.168Z,4.05
2023-02-06T06:52:48.516Z,5.43
2023-02-06T06:55:37.028Z,3.10
2023-02-06T06:58:23.041Z,3.33
2023-02-06T07:01:08.963Z,6.00
2023-02-06T07:03:54.177Z,8.63
2023-02-06T07:06:40.628Z,2.63
2023-02-06T07:09:26.341Z,3.80
2023-02-06T07:12:12.035Z,3.00
2023-02-06T07:14:57.462Z,2.63
2023-02-06T07:17:42.757Z,5.63
2023-02-06T07:20:28.326Z,9.60
2023-02-06T07:23:13.951Z,18.95
2023-02-06T07:26:02.354Z,8.60
2023-02-06T07:28:49.756Z,10.15
2023-02-06T07:31:37.367Z,2.65
2023-02-06T07:34:22.673Z,2.10
2023-02-06T07:37:08.080Z,2.67
2023-02-06T07:39:53.272Z,1.85
2023-02-06T07:42:40.198Z,3.38
2023-02-06T07:45:38.360Z,2.65
2023-02-06T07:48:23.903Z,3.58
2023-02-06T07:51:10.211Z,1.85
2023-02-06T07:53:55.621Z,1.98
2023-02-06T07:56:41.184Z,3.13
2023-02-06T07:59:26.724Z,5.05
2023-02-06T08:02:12.677Z,2.55
2023-02-06T08:05:00.642Z,3.35
2023-02-06T08:07:45.871Z,2.67
2023-02-06T08:10:31.413Z,2.45
2023-02-06T08:13:16.990Z,1.38
2023-02-06T08:16:11.773Z,2.10
2023-02-06T08:18:57.020Z,2.65
2023-02-06T08:21:42.364Z,3.75
2023-02-06T08:24:27.884Z,3.88
2023-02-06T08:27:13.273Z,2.15
2023-02-06T08:29:59.394Z,5.03
2023-02-06T08:32:44.956Z,2.10
2023-02-06T08:35:30.370Z,5.15
2023-02-06T08:38:15.764Z,4.20
2023-02-06T08:41:01.243Z,3.42
2023-02-06T08:43:47.973Z,3.58
2023-02-06T08:46:33.812Z,3.67
2023-02-06T08:49:22.060Z,1.50
2023-02-06T08:52:07.562Z,3.85
2023-02-06T08:54:53.016Z,1.80
2023-02-06T08:57:38.510Z,1.92
2023-02-06T09:00:23.892Z,2.72
2023-02-06T09:03:09.074Z,2.50
2023-02-06T09:06:09.612Z,2.22
2023-02-06T09:08:56.657Z,2.63
2023-02-06T09:11:43.109Z,1.65
2023-02-06T09:14:29.426Z,4.10
2023-02-06T09:17:14.726Z,4.65
2023-02-06T09:20:01.296Z,3.50
2023-02-06T09:22:46.548Z,3.08
2023-02-06T09:25:31.759Z,3.00
2023-02-06T09:28:17.989Z,2.13
2023-02-06T09:31:03.741Z,2.50
2023-02-06T09:33:49.727Z,2.28
2023-02-06T09:36:36.799Z,3.20
2023-02-06T09:39:22.276Z,4.05
2023-02-06T09:42:18.467Z,4.65
2023-02-06T09:45:17.122Z,3.80
2023-02-06T09:48:05.448Z,4.30
2023-02-06T09:51:05.555Z,3.47
2023-02-06T09:54:05.924Z,3.20
2023-02-06T09:57:02.107Z,4.03
2023-02-06T10:00:04.279Z,4.70
2023-02-06T10:03:19.371Z,3.85
2023-02-06T10:06:22.607Z,3.20
2023-02-06T10:09:14.708Z,4.80
2023-02-06T10:12:09.417Z,3.10
2023-02-06T10:15:02.830Z,4.45
2023-02-06T10:17:58.454Z,3.60
2023-02-06T10:20:53.057Z,4.18
2023-02-06T10:24:19.529Z,3.95
2023-02-06T10:27:11.633Z,3.33
2023-02-06T10:29:56.843Z,2.35
2023-02-06T10:32:49.427Z,3.75
2023-02-06T10:35:58.834Z,4.18
2023-02-06T10:39:13.738Z,3.13
2023-02-06T10:42:15.292Z,3.78
2023-02-06T10:45:20.284Z,2.65
2023-02-06T10:48:29.288Z,5.55
2023-02-06T10:51:35.525Z,4.60
2023-02-06T10:54:38.475Z,4.15
2023-02-06T10:57:28.635Z,4.70
2023-02-06T11:00:27.448Z,5.00
2023-02-06T11:03:17.483Z,6.72
2023-02-06T11:06:03.070Z,4.85
2023-02-06T11:08:49.009Z,4.43
2023-02-06T11:11:46.702Z,4.82
2023-02-06T11:14:38.919Z,6.00
2023-02-06T11:17:28.211Z,5.15
2023-02-06T11:20:35.537Z,5.90
2023-02-06T11:23:23.558Z,2.78
2023-02-06T11:26:19.323Z,4.25
2023-02-06T11:29:20.378Z,5.18
2023-02-06T11:32:08.715Z,3.63
2023-02-06T11:34:59.220Z,3.40
2023-02-06T11:37:44.901Z,3.70
2023-02-06T11:40:30.159Z,5.10
2023-02-06T11:43:26.012Z,5.22
2023-02-06T11:46:16.197Z,3.53
2023-02-06T11:49:29.165Z,3.03
2023-02-06T11:52:30.324Z,4.63
2023-02-06T11:55:29.661Z,5.72
2023-02-06T11:58:14.895Z,3.22
2023-02-06T12:01:04.426Z,3.42
2023-02-06T12:03:49.930Z,4.50
2023-02-06T12:06:39.498Z,3.70
2023-02-06T12:09:25.162Z,4.32
2023-02-06T12:12:25.432Z,4.38
2023-02-06T12:15:36.231Z,8.18
2023-02-06T12:18:24.007Z,4.13
2023-02-06T12:21:47.720Z,6.63
2023-02-06T12:24:38.928Z,5.65
2023-02-06T12:27:39.042Z,4.32
2023-02-06T12:30:28.109Z,5.78
2023-02-06T12:33:34.072Z,4.63
2023-02-06T12:36:34.192Z,4.95
2023-02-06T12:39:22.330Z,5.78
2023-02-06T12:42:26.185Z,5.53
2023-02-06T12:45:39.878Z,9.05
2023-02-06T12:48:41.569Z,3.22
2023-02-06T12:51:34.821Z,2.78
2023-02-06T12:54:33.710Z,5.75
2023-02-06T12:57:24.001Z,4.45
2023-02-06T13:00:30.676Z,8.02
2023-02-06T13:03:49.074Z,6.45
2023-02-06T13:06:55.376Z,7.13
2023-02-06T13:09:48.740Z,4.32
2023-02-06T13:12:34.969Z,4.28
2023-02-06T13:15:27.349Z,20.42
2023-02-06T13:18:34.688Z,21.48
2023-02-06T13:21:25.133Z,3.20
2023-02-06T13:24:16.169Z,3.20
2023-02-06T13:27:08.296Z,3.60
2023-02-06T13:29:54.116Z,3.80
2023-02-06T13:32:46.142Z,3.00
2023-02-06T13:35:31.769Z,2.80
2023-02-06T13:38:23.138Z,4.50
2023-02-06T13:41:14.847Z,3.88
2023-02-06T13:44:17.770Z,3.33
2023-02-06T13:47:18.594Z,4.00
2023-02-06T13:50:22.919Z,3.70
2023-02-06T13:53:30.932Z,2.28
2023-02-06T13:56:34.910Z,1.63
2023-02-06T13:59:28.337Z,2.90
2023-02-06T14:02:30.159Z,3.22
2023-02-06T14:05:22.198Z,6.93
2023-02-06T14:08:40.121Z,5.78
2023-02-06T14:11:56.779Z,4.43
2023-02-06T14:15:10.460Z,3.78
2023-02-06T14:17:59.064Z,3.35
2023-02-06T14:21:02.456Z,4.20
2023-02-06T14:24:11.083Z,7.40
2023-02-06T14:27:18.216Z,6.47
2023-02-06T14:30:18.940Z,4.88
2023-02-06T14:33:07.352Z,6.15
2023-02-06T14:36:09.577Z,3.80
2023-02-06T14:39:27.133Z,5.25
2023-02-06T14:42:35.971Z,3.80
2023-02-06T14:45:41.714Z,3.40
2023-02-06T14:48:38.469Z,3.13
2023-02-06T14:51:36.522Z,4.45
2023-02-06T14:57:27.768Z,3.55
2023-02-06T15:00:18.391Z,4.35
2023-02-06T15:03:17.480Z,4.53
2023-02-06T15:06:10.329Z,3.20
2023-02-06T15:08:55.856Z,4.05
2023-02-06T15:11:41.845Z,3.08
2023-02-06T15:14:30.526Z,2.92
2023-02-06T15:17:21.469Z,3.83
2023-02-06T15:20:25.511Z,3.97
2023-02-06T15:23:28.011Z,2.92
2023-02-06T15:26:19.606Z,3.45
2023-02-06T15:29:15.598Z,3.75
2023-02-06T15:32:25.847Z,3.33
2023-02-06T15:35:40.081Z,4.32
2023-02-06T15:38:29.195Z,4.50
2023-02-06T15:41:15.051Z,4.63
2023-02-06T15:44:11.955Z,3.03
2023-02-06T15:46:58.738Z,4.40
2023-02-06T15:49:47.132Z,4.55
2023-02-06T15:52:47.080Z,5.97
2023-02-06T15:55:36.505Z,4.15
2023-02-06T15:58:24.779Z,3.75
2023-02-06T16:01:18.453Z,4.30
2023-02-06T16:04:18.596Z,3.83
2023-02-06T16:07:23.670Z,4.00
2023-02-06T16:10:09.320Z,7.68
2023-02-06T16:12:57.380Z,8.77
2023-02-06T16:16:01.843Z,8.68
2023-02-06T16:18:51.834Z,7.68
2023-02-06T16:21:42.184Z,5.88
2023-02-06T16:24:28.092Z,7.20
2023-02-06T16:27:25.917Z,7.68
2023-02-06T16:33:37.615Z,6.43
2023-02-06T16:36:24.145Z,7.65
2023-02-06T16:39:09.446Z,4.93
2023-02-06T16:41:54.863Z,6.57
2023-02-06T16:44:45.346Z,5.07
2023-02-06T16:47:31.545Z,7.97
2023-02-06T16:50:17.767Z,17.77
2023-02-06T16:53:03.562Z,18.52
2023-02-06T16:55:50.121Z,11.40
2023-02-06T16:58:36.043Z,8.98
2023-02-06T17:01:25.586Z,9.88
2023-02-06T17:04:11.104Z,11.35
2023-02-06T17:06:57.134Z,10.18
2023-02-06T17:09:44.243Z,5.20
2023-02-06T17:12:30.698Z,6.38
2023-02-06T17:15:18.914Z,7.60
2023-02-06T17:18:04.826Z,8.95
2023-02-06T17:20:53.120Z,6.90
2023-02-06T17:23:38.577Z,8.00
2023-02-06T17:26:24.717Z,7.18
2023-02-06T17:29:14.207Z,8.45
2023-02-06T17:32:00.775Z,8.50
2023-02-06T17:34:48.602Z,8.10
2023-02-06T17:37:34.274Z,12.93
2023-02-06T17:40:24.800Z,10.25
2023-02-06T17:43:10.846Z,7.72
2023-02-06T17:45:56.619Z,21.05
2023-02-06T17:48:43.266Z,18.42
2023-02-06T17:51:29.075Z,8.88
2023-02-06T17:54:14.433Z,6.63
2023-02-06T17:56:59.772Z,12.48
2023-02-06T17:59:45.143Z,20.35
2023-02-06T18:02:30.504Z,29.08
2023-02-06T18:05:16.022Z,21.60
2023-02-06T18:08:01.603Z,21.40
2023-02-06T18:10:47.073Z,16.20
2023-02-06T18:13:32.895Z,16.75
2023-02-06T18:16:20.633Z,9.25
2023-02-06T18:19:06.386Z,9.73
2023-02-06T18:21:52.061Z,10.40
2023-02-06T18:24:37.789Z,15.57
2023-02-06T18:27:23.298Z,12.77
2023-02-06T18:30:09.881Z,9.30
2023-02-06T18:32:55.386Z,10.63
2023-02-06T18:35:44.397Z,12.52
2023-02-06T18:38:30.165Z,11.70
2023-02-06T18:41:34.996Z,8.90
2023-02-06T18:44:20.332Z,7.97
2023-02-06T18:47:05.840Z,7.80
2023-02-06T18:49:51.452Z,8.38
2023-02-06T18:52:37.050Z,5.80
2023-02-06T18:55:22.915Z,7.68
2023-02-06T18:58:08.643Z,5.97
2023-02-06T19:00:54.383Z,7.47
2023-02-06T19:03:40.744Z,9.93
2023-02-06T19:06:31.774Z,8.43
2023-02-06T19:09:20.258Z,4.75
2023-02-06T19:12:06.620Z,6.18
2023-02-06T19:14:52.072Z,4.95
2023-02-06T19:17:38.206Z,7.50
2023-02-06T19:20:23.728Z,6.43
2023-02-06T19:23:09.022Z,5.45
2023-02-06T19:25:54.422Z,5.43
2023-02-06T19:28:41.237Z,12.35
2023-02-06T19:34:15.662Z,4.72
2023-02-06T19:37:01.109Z,5.80
2023-02-06T19:39:46.432Z,5.22
2023-02-06T19:42:31.968Z,4.20
2023-02-06T19:45:17.325Z,4.82
2023-02-06T19:48:02.838Z,6.50
2023-02-06T19:50:49.400Z,5.25
2023-02-06T19:53:35.551Z,5.70
2023-02-06T19:56:26.936Z,5.75
2023-02-06T19:59:18.431Z,5.55
2023-02-06T20:02:04.167Z,7.57
2023-02-06T20:04:49.620Z,6.80
2023-02-06T20:07:35.003Z,5.38
2023-02-06T20:10:23.635Z,4.72
2023-02-06T20:13:09.230Z,3.95
2023-02-06T20:15:54.860Z,5.80
2023-02-06T20:18:40.061Z,5.15
2023-02-06T20:21:36.484Z,4.47
2023-02-06T20:27:12.444Z,3.42
2023-02-06T20:29:57.912Z,4.72
2023-02-06T20:32:43.304Z,4.50
2023-02-06T20:35:28.818Z,5.28
2023-02-06T20:38:14.140Z,4.35
2023-02-06T20:40:59.525Z,4.22
2023-02-06T20:43:47.911Z,4.78
2023-02-06T20:46:33.885Z,9.10
2023-02-06T20:49:26.106Z,4.70
2023-02-06T20:52:11.845Z,7.43
2023-02-06T20:54:57.569Z,7.38
2023-02-06T20:57:43.347Z,7.45
2023-02-06T21:00:29.292Z,8.23
2023-02-06T21:03:15.074Z,12.05
2023-02-06T21:06:00.774Z,5.82
2023-02-06T21:08:47.880Z,7.00
2023-02-06T21:11:38.706Z,5.45
2023-02-06T21:14:25.412Z,3.63
2023-02-06T21:17:11.386Z,7.57
2023-02-06T21:19:56.648Z,9.65
2023-02-06T21:22:42.338Z,9.80
2023-02-06T21:25:27.939Z,4.53
2023-02-06T21:28:13.290Z,4.40
2023-02-06T21:31:01.227Z,7.75
2023-02-06T21:33:47.790Z,2.97
2023-02-06T21:36:35.203Z,3.20
2023-02-06T21:39:25.113Z,5.30
2023-02-06T21:42:11.512Z,5.32
2023-02-06T21:44:57.190Z,8.73
2023-02-06T21:47:42.340Z,8.30
2023-02-06T21:50:27.686Z,5.93
2023-02-06T21:53:12.886Z,5.60
2023-02-06T21:55:59.209Z,10.45
2023-02-06T21:58:45.379Z,4.97
2023-02-06T22:01:33.509Z,5.10
2023-02-06T22:04:18.969Z,14.55
2023-02-06T22:07:04.524Z,11.07
2023-02-06T22:09:49.929Z,4.65
2023-02-06T22:12:35.592Z,8.55
2023-02-06T22:15:21.264Z,6.38
2023-02-06T22:18:10.237Z,6.53
2023-02-06T22:21:14.328Z,4.88
2023-02-06T22:24:05.485Z,8.55
2023-02-06T22:26:51.202Z,12.20
2023-02-06T22:29:36.499Z,6.75
2023-02-06T22:32:21.865Z,7.88
2023-02-06T22:35:07.213Z,6.25
2023-02-06T22:37:52.720Z,6.40
2023-02-06T22:40:38.307Z,7.20
2023-02-06T22:43:23.705Z,5.28
2023-02-06T22:46:17.215Z,5.32
2023-02-06T22:49:04.524Z,4.28
2023-02-06T22:51:52.671Z,4.75
2023-02-06T22:54:38.212Z,3.20
2023-02-06T22:57:27.726Z,5.90
2023-02-06T23:00:18.423Z,3.90
2023-02-06T23:03:04.665Z,3.65
2023-02-06T23:05:49.958Z,6.07
2023-02-06T23:08:36.934Z,6.82
2023-02-06T23:11:23.178Z,3.78
2023-02-06T23:14:10.643Z,6.97
2023-02-06T23:16:56.902Z,11.70
2023-02-06T23:19:42.292Z,4.95
2023-02-06T23:22:27.523Z,8.02
2023-02-06T23:25:15.947Z,4.93
2023-02-06T23:28:01.772Z,6.25
2023-02-06T23:30:47.209Z,5.85
2023-02-06T23:33:32.930Z,6.35
2023-02-06T23:36:20.544Z,5.60
2023-02-06T23:39:06.468Z,1.80
2023-02-06T23:41:51.829Z,10.05
2023-02-06T23:44:37.145Z,10.18
2023-02-06T23:47:22.745Z,9.77
2023-02-06T23:50:08.612Z,9.45
2023-02-06T23:52:54.418Z,12.02
2023-02-06T23:55:40.039Z,11.82
2023-02-06T23:58:25.844Z,9.73
